»·PEaware :: DAL143 KMSO-KSEA

DAL143 :: KMSO-KSEA

FLIGHT INFORMATION

Flight Status: Arrived
Operator:
Delta Air Lines
More flights by this operator :: More flights under this callsign
Pilot: Anonymous 16492 (16492)
Aircraft: BOEING 737-200
(B732)
More flights by this aircraft type
Origin: KMSO Missoula Intl
United States
Destination: KSEA Seattle-Tacoma Intl
United States
More flights between these airports :: More routes between these airports
Route: +DIDLY5 MLP GLASR1
File this flight plan on PilotEdge
Remarks:
Altitude:
(Current/Filed)
30,000ft
Speed:
(Current/Filed)
440kts
Departed: 20-Sep-18 05:15 PM
Arrived: 20-Sep-18 06:35 PM
Distance/Time
Traveled:
336nm/1:20
Distance/Time
To Go:
Arrived

Flight Plot

Page will automatically refresh every two minutes.

Flight plan parsing failed; only flown route is shown


Map Options




Map Legend


Flown Route
Filed Route
Departure Airport
Arrival Airport
Navaid (VOR, NDB)
Fix

Horizontal Profiles

Position Reports

Time Latitude Longitude Heading Altitude Ground
Speed
20-Sep-18 16:56 46.918612 -114.084701 57 3214ft 0kts
20-Sep-18 16:57 46.918612 -114.084701 57 3214ft 0kts
20-Sep-18 16:58 46.918612 -114.084701 57 3214ft 0kts
20-Sep-18 16:59 46.918612 -114.084701 57 3214ft 0kts
20-Sep-18 17:00 46.918612 -114.084701 57 3214ft 0kts
20-Sep-18 17:01 46.918612 -114.084701 57 3214ft 0kts
20-Sep-18 17:02 46.918612 -114.084701 57 3214ft 0kts
20-Sep-18 17:03 46.918614 -114.084697 57 3214ft 0kts
20-Sep-18 17:04 46.918341 -114.085333 57 3214ft 2kts
20-Sep-18 17:05 46.918330 -114.086128 130 3214ft 1kts
20-Sep-18 17:06 46.918349 -114.086159 132 3214ft 0kts
20-Sep-18 17:07 46.918349 -114.086159 132 3214ft 0kts
20-Sep-18 17:08 46.918349 -114.086159 132 3214ft 0kts
20-Sep-18 17:09 46.918349 -114.086159 132 3214ft 0kts
20-Sep-18 17:10 46.918349 -114.086159 132 3214ft 0kts
20-Sep-18 17:11 46.914534 -114.085251 131 3214ft 28kts
20-Sep-18 17:12 46.909590 -114.077191 172 3214ft 18kts
20-Sep-18 17:13 46.909061 -114.077192 180 3214ft 0kts
20-Sep-18 17:14 46.909061 -114.077192 180 3214ft 0kts
20-Sep-18 17:15 46.908537 -114.077321 200 3214ft 12kts
20-Sep-18 17:16 46.908927 -114.079309 309 3214ft 40kts
20-Sep-18 17:17 46.936209 -114.122347 309 4313ft 203kts
20-Sep-18 17:18 46.975604 -114.194481 307 7683ft 237kts
20-Sep-18 17:19 47.018660 -114.268692 308 10370ft 246kts
20-Sep-18 17:20 47.066487 -114.349720 308 11281ft 288kts
20-Sep-18 17:21 47.110278 -114.423671 308 12886ft 290kts
20-Sep-18 17:22 47.172249 -114.528794 304 15397ft 295kts
20-Sep-18 17:23 47.199511 -114.618709 289 17414ft 292kts
20-Sep-18 17:24 47.233351 -114.749040 288 19931ft 296kts
20-Sep-18 17:25 47.257381 -114.843536 288 21535ft 298kts
20-Sep-18 17:26 47.286331 -114.958180 288 23250ft 302kts
20-Sep-18 17:27 47.320512 -115.094267 288 24958ft 307kts
20-Sep-18 17:28 47.345174 -115.193008 288 26022ft 311kts
20-Sep-18 17:29 47.379947 -115.333098 288 27413ft 314kts
20-Sep-18 17:30 47.404815 -115.433778 288 28296ft 316kts
20-Sep-18 17:31 47.434731 -115.555474 289 29245ft 319kts
20-Sep-18 17:32 47.457925 -115.680017 278 30083ft 321kts
20-Sep-18 17:33 47.467354 -115.815624 277 30147ft 344kts
20-Sep-18 17:34 47.476354 -115.960490 276 30143ft 364kts
20-Sep-18 17:35 47.485252 -116.109028 276 30135ft 368kts
20-Sep-18 17:36 47.493971 -116.257941 276 30133ft 366kts
20-Sep-18 17:37 47.502473 -116.406599 276 30131ft 365kts
20-Sep-18 17:38 47.510734 -116.554340 276 30129ft 363kts
20-Sep-18 17:39 47.518772 -116.701599 276 30141ft 362kts
20-Sep-18 17:40 47.526675 -116.849690 276 30139ft 363kts
20-Sep-18 17:41 47.534359 -116.997283 275 30136ft 363kts
20-Sep-18 17:42 47.541789 -117.143769 275 30135ft 364kts
20-Sep-18 17:43 47.549117 -117.292177 275 30134ft 365kts
20-Sep-18 17:44 47.556224 -117.439921 275 30132ft 365kts
20-Sep-18 17:45 47.563156 -117.587926 275 30130ft 365kts
20-Sep-18 17:46 47.575349 -117.734246 278 30140ft 365kts
20-Sep-18 17:47 47.589490 -117.882508 278 30138ft 366kts
20-Sep-18 17:48 47.603435 -118.030539 278 30136ft 367kts
20-Sep-18 17:49 47.616997 -118.176600 278 30134ft 367kts
20-Sep-18 17:50 47.630394 -118.322953 278 30132ft 367kts
20-Sep-18 17:51 47.643816 -118.471750 278 30111ft 367kts
20-Sep-18 17:52 47.657128 -118.621537 278 30093ft 367kts
20-Sep-18 17:53 47.670123 -118.769971 278 30103ft 368kts
20-Sep-18 17:54 47.683096 -118.920302 277 30100ft 368kts
20-Sep-18 17:55 47.695802 -119.069986 277 30099ft 369kts
20-Sep-18 17:56 47.708277 -119.219553 277 29047ft 366kts
20-Sep-18 17:57 47.720491 -119.368089 277 26809ft 359kts
20-Sep-18 17:58 47.732208 -119.513103 276 24707ft 352kts
20-Sep-18 17:59 47.743116 -119.650185 275 23814ft 316kts
20-Sep-18 18:00 47.753125 -119.777874 275 21945ft 311kts
20-Sep-18 18:01 47.762861 -119.903873 275 20130ft 306kts
20-Sep-18 18:02 47.772252 -120.026618 275 18228ft 302kts
20-Sep-18 18:03 47.781263 -120.146462 275 16360ft 298kts
20-Sep-18 18:04 47.790141 -120.266385 275 14513ft 294kts
20-Sep-18 18:05 47.798780 -120.384810 275 12716ft 290kts
20-Sep-18 18:06 47.807170 -120.498649 276 12071ft 265kts
20-Sep-18 18:07 47.814692 -120.601858 275 12071ft 241kts
20-Sep-18 18:08 47.821285 -120.694916 275 12073ft 221kts
20-Sep-18 18:09 47.827360 -120.781999 275 11918ft 209kts
20-Sep-18 18:10 47.832934 -120.862678 275 11905ft 191kts
20-Sep-18 18:11 47.837518 -120.929445 275 11894ft 172kts
20-Sep-18 18:12 47.864472 -120.989651 330 10062ft 259kts
20-Sep-18 18:13 47.931534 -121.022510 353 10216ft 241kts
20-Sep-18 18:14 47.981026 -120.978954 56 11165ft 228kts
20-Sep-18 18:15 47.951500 -120.923077 206 11296ft 239kts
20-Sep-18 18:16 47.918670 -121.007630 249 11862ft 247kts
20-Sep-18 18:17 47.888054 -121.101394 245 11965ft 273kts
20-Sep-18 18:18 47.859233 -121.200056 272 12020ft 264kts
20-Sep-18 18:19 47.863247 -121.305100 276 11995ft 260kts
20-Sep-18 18:20 47.869254 -121.408984 276 11995ft 259kts
20-Sep-18 18:21 47.872571 -121.511582 259 11989ft 261kts
20-Sep-18 18:22 47.852530 -121.608198 255 11825ft 241kts
20-Sep-18 18:23 47.834781 -121.694596 254 10518ft 239kts
20-Sep-18 18:24 47.819635 -121.782719 263 9113ft 241kts
20-Sep-18 18:25 47.799649 -121.870912 255 7522ft 256kts
20-Sep-18 18:26 47.781298 -121.952430 256 6977ft 234kts
20-Sep-18 18:27 47.763109 -122.033459 255 6400ft 226kts
20-Sep-18 18:28 47.745381 -122.120036 255 4636ft 232kts
20-Sep-18 18:29 47.730336 -122.202713 256 3984ft 192kts
20-Sep-18 18:30 47.707890 -122.266434 209 4003ft 188kts
20-Sep-18 18:31 47.661986 -122.302189 211 3991ft 193kts
20-Sep-18 18:32 47.612911 -122.310359 179 3420ft 178kts
20-Sep-18 18:33 47.567876 -122.310457 179 2500ft 155kts
20-Sep-18 18:34 47.527581 -122.310858 179 1708ft 144kts
20-Sep-18 18:35 47.490394 -122.311138 180 1000ft 134kts
20-Sep-18 18:36 47.454831 -122.310999 180 442ft 124kts
20-Sep-18 18:37 47.439616 -122.309267 146 442ft 8kts
20-Sep-18 18:38 47.439344 -122.306404 17 442ft 10kts
20-Sep-18 18:39 47.439099 -122.303321 140 442ft 0kts
20-Sep-18 18:40 47.439099 -122.303321 140 442ft 0kts
20-Sep-18 18:41 47.439099 -122.303321 140 442ft 0kts
20-Sep-18 18:42 47.439099 -122.303321 140 442ft 0kts
20-Sep-18 18:43 47.439101 -122.303313 141 440ft 0kts
20-Sep-18 18:44 47.439098 -122.303321 139 437ft 0kts

Navigation Log

Ident Type
Flight plan parsing failed, navigation log unavailable